createdAt,value
2022-10-17T00:06:51.678Z,18.20
2022-10-17T00:09:19.090Z,18.00
2022-10-17T00:11:46.408Z,18.10
2022-10-17T00:14:14.308Z,18.20
2022-10-17T00:16:45.640Z,18.20
2022-10-17T00:19:14.480Z,18.30
2022-10-17T00:21:42.029Z,18.30
2022-10-17T00:27:35.281Z,18.10
2022-10-17T00:30:02.798Z,18.00
2022-10-17T00:32:30.939Z,18.10
2022-10-17T00:34:58.718Z,18.30
2022-10-17T00:37:26.409Z,18.50
2022-10-17T00:39:54.408Z,18.50
2022-10-17T00:42:24.570Z,18.60
2022-10-17T00:45:05.060Z,18.60
2022-10-17T00:52:38.321Z,18.90
2022-10-17T00:55:13.298Z,18.90
2022-10-17T00:57:41.030Z,19.10
2022-10-17T01:00:11.429Z,19.00
2022-10-17T01:02:39.872Z,18.90
2022-10-17T01:05:09.950Z,19.00
2022-10-17T01:07:46.048Z,19.10
2022-10-17T01:13:22.489Z,19.10
2022-10-17T01:16:00.260Z,19.20
2022-10-17T01:18:39.050Z,19.20
2022-10-17T01:21:32.819Z,19.20
2022-10-17T01:24:45.151Z,19.20
2022-10-17T01:27:49.078Z,19.20
2022-10-17T01:33:45.019Z,19.20
2022-10-17T01:36:17.330Z,19.10
2022-10-17T01:38:48.560Z,19.10
2022-10-17T01:41:25.116Z,19.10
2022-10-17T01:43:58.058Z,19.20
2022-10-17T01:46:28.692Z,19.30
2022-10-17T01:49:02.790Z,19.10
2022-10-17T01:56:39.861Z,19.20
2022-10-17T01:59:13.189Z,19.20
2022-10-17T02:01:42.447Z,19.10
2022-10-17T02:04:12.102Z,19.00
2022-10-17T02:06:39.988Z,18.90
2022-10-17T02:09:22.160Z,19.00
2022-10-17T02:12:36.188Z,19.10
2022-10-17T02:20:20.999Z,19.30
2022-10-17T02:22:53.258Z,19.30
2022-10-17T02:25:27.799Z,19.40
2022-10-17T02:28:01.132Z,19.30
2022-10-17T02:30:35.079Z,19.30
2022-10-17T02:33:07.460Z,19.30
2022-10-17T02:35:40.479Z,19.30
2022-10-17T02:43:15.948Z,19.30
2022-10-17T02:45:44.252Z,19.20
2022-10-17T02:48:19.701Z,19.30
2022-10-17T02:50:57.404Z,19.50
2022-10-17T02:53:33.299Z,19.40
2022-10-17T02:56:07.229Z,19.10
2022-10-17T02:58:42.501Z,19.10
2022-10-17T03:01:10.452Z,19.20
2022-10-17T03:08:40.230Z,19.20
2022-10-17T03:11:09.710Z,18.80
2022-10-17T03:13:39.734Z,18.80
2022-10-17T03:16:08.083Z,18.80
2022-10-17T03:18:35.363Z,18.60
2022-10-17T03:21:03.052Z,18.70
2022-10-17T03:23:30.271Z,18.80
2022-10-17T03:25:59.729Z,18.60
2022-10-17T03:36:11.860Z,18.60
2022-10-17T03:38:39.670Z,18.80
2022-10-17T03:41:07.604Z,18.80
2022-10-17T03:43:35.249Z,18.80
2022-10-17T03:46:03.289Z,18.70
2022-10-17T03:48:31.773Z,18.60
2022-10-17T03:51:00.890Z,18.70
2022-10-17T03:58:39.312Z,18.60
2022-10-17T04:01:11.483Z,18.40
2022-10-17T04:03:38.955Z,18.30
2022-10-17T04:06:06.911Z,18.30
2022-10-17T04:08:38.972Z,18.20
2022-10-17T04:11:08.327Z,18.30
2022-10-17T04:13:40.880Z,18.30
2022-10-17T04:16:11.111Z,18.20
2022-10-17T04:18:38.813Z,18.10
2022-10-17T04:26:19.451Z,18.00
2022-10-17T04:28:47.032Z,18.10
2022-10-17T04:31:15.569Z,18.00
2022-10-17T04:33:44.339Z,17.90
2022-10-17T04:36:14.429Z,17.90
2022-10-17T04:38:41.589Z,17.90
2022-10-17T04:41:12.160Z,17.80
2022-10-17T04:46:46.871Z,17.80
2022-10-17T04:49:14.401Z,17.80
2022-10-17T04:51:41.640Z,17.80
2022-10-17T04:54:09.323Z,17.80
2022-10-17T04:56:37.419Z,17.80
2022-10-17T04:59:05.128Z,17.90
2022-10-17T05:01:32.869Z,18.00
2022-10-17T05:07:26.450Z,17.90
2022-10-17T05:09:53.789Z,17.80
2022-10-17T05:12:22.361Z,17.90
2022-10-17T05:14:50.060Z,17.90
2022-10-17T05:17:17.320Z,17.90
2022-10-17T05:19:44.639Z,18.00
2022-10-17T05:22:12.158Z,18.10
2022-10-17T05:27:19.811Z,18.10
2022-10-17T05:29:47.960Z,18.10
2022-10-17T05:32:16.261Z,18.10
2022-10-17T05:34:43.811Z,18.20
2022-10-17T05:37:12.020Z,18.30
2022-10-17T05:39:39.721Z,18.30
2022-10-17T05:42:08.510Z,18.40
2022-10-17T05:47:20.901Z,18.30
2022-10-17T05:49:51.403Z,18.30
2022-10-17T05:52:19.740Z,18.30
2022-10-17T05:54:47.333Z,18.20
2022-10-17T05:57:14.702Z,18.20
2022-10-17T05:59:42.052Z,18.10
2022-10-17T06:02:11.428Z,18.10
2022-10-17T06:04:45.021Z,18.10
2022-10-17T06:12:21.181Z,18.10
2022-10-17T06:14:48.810Z,17.60
2022-10-17T06:17:16.524Z,17.70
2022-10-17T06:19:44.189Z,17.50
2022-10-17T06:22:11.650Z,17.40
2022-10-17T06:24:38.843Z,17.60
2022-10-17T06:27:10.913Z,17.50
2022-10-17T06:29:40.420Z,17.60
2022-10-17T06:37:18.289Z,17.80
2022-10-17T06:39:45.609Z,17.80
2022-10-17T06:42:13.102Z,17.80
2022-10-17T06:44:41.039Z,17.50
2022-10-17T06:47:09.891Z,17.60
2022-10-17T06:49:37.278Z,17.40
2022-10-17T06:52:05.230Z,17.70
2022-10-17T06:59:59.360Z,17.80
2022-10-17T07:02:27.008Z,18.10
2022-10-17T07:04:56.201Z,18.20
2022-10-17T07:07:23.669Z,18.30
2022-10-17T07:09:55.351Z,18.40
2022-10-17T07:12:23.770Z,18.50
2022-10-17T07:14:51.149Z,18.50
2022-10-17T07:22:23.989Z,18.80
2022-10-17T07:24:51.605Z,18.90
2022-10-17T07:27:19.219Z,19.00
2022-10-17T07:29:46.610Z,19.20
2022-10-17T07:32:14.404Z,19.10
2022-10-17T07:34:41.871Z,19.20
2022-10-17T07:37:10.550Z,19.20
2022-10-17T07:39:39.679Z,19.10
2022-10-17T07:47:15.561Z,18.60
2022-10-17T07:49:44.999Z,18.80
2022-10-17T07:52:13.749Z,19.10
2022-10-17T07:54:41.488Z,19.30
2022-10-17T07:57:14.258Z,19.40
2022-10-17T07:59:47.561Z,19.80
2022-10-17T08:02:21.928Z,19.90
2022-10-17T08:04:51.121Z,20.10
2022-10-17T08:12:25.549Z,20.40
2022-10-17T08:14:53.669Z,20.70
2022-10-17T08:17:21.133Z,20.70
2022-10-17T08:19:48.601Z,20.90
2022-10-17T08:22:16.028Z,21.10
2022-10-17T08:24:44.141Z,21.20
2022-10-17T08:27:13.108Z,21.20
2022-10-17T08:45:49.821Z,21.40
2022-10-17T08:48:20.421Z,21.60
2022-10-17T08:50:53.295Z,21.70
2022-10-17T08:53:25.289Z,21.70
2022-10-17T08:55:54.753Z,21.80
2022-10-17T08:58:24.031Z,21.80
2022-10-17T09:07:12.219Z,21.80
2022-10-17T09:09:48.538Z,22.00
2022-10-17T09:12:43.388Z,22.00
2022-10-17T09:15:43.308Z,22.00
2022-10-17T09:18:32.149Z,22.20
2022-10-17T09:21:07.170Z,22.30
2022-10-17T09:23:44.192Z,22.20
2022-10-17T09:26:13.658Z,22.30
2022-10-17T09:28:47.005Z,22.00
2022-10-17T09:36:23.226Z,22.20
2022-10-17T09:38:53.758Z,22.50
2022-10-17T09:44:23.322Z,23.00
2022-10-17T09:47:19.168Z,23.00
2022-10-17T09:49:48.410Z,22.90
2022-10-17T09:52:20.032Z,23.20
2022-10-17T10:02:56.170Z,23.50
2022-10-17T10:05:26.940Z,23.90
2022-10-17T10:08:07.978Z,24.00
2022-10-17T10:10:42.861Z,24.20
2022-10-17T10:13:23.530Z,24.10
2022-10-17T10:16:24.850Z,24.20
2022-10-17T10:19:10.661Z,23.70
2022-10-17T10:21:58.908Z,23.80
2022-10-17T10:29:44.066Z,24.00
2022-10-17T10:32:22.779Z,23.40
2022-10-17T10:34:53.918Z,23.40
2022-10-17T10:37:27.142Z,23.80
2022-10-17T10:39:57.370Z,23.90
2022-10-17T10:42:28.569Z,23.90
2022-10-17T10:45:00.708Z,23.90
2022-10-17T10:53:10.001Z,24.10
2022-10-17T10:55:43.678Z,23.90
2022-10-17T10:58:24.462Z,24.00
2022-10-17T11:00:53.645Z,24.10
2022-10-17T11:03:30.935Z,24.30
2022-10-17T11:06:04.011Z,24.30
2022-10-17T11:08:40.900Z,24.20
2022-10-17T11:11:19.071Z,24.30
2022-10-17T11:19:03.128Z,24.30
2022-10-17T11:24:20.258Z,24.30
2022-10-17T11:26:58.142Z,24.50
2022-10-17T11:29:40.689Z,24.50
2022-10-17T11:32:13.658Z,24.60
2022-10-17T11:34:46.118Z,24.90
2022-10-17T11:45:00.760Z,25.10
2022-10-17T11:48:00.821Z,25.50
2022-10-17T11:54:00.620Z,25.80
2022-10-17T11:56:54.678Z,25.60
2022-10-17T12:00:08.903Z,25.50
2022-10-17T12:02:57.836Z,25.50
2022-10-17T12:05:33.331Z,25.60
2022-10-17T12:13:48.569Z,25.50
2022-10-17T12:17:20.652Z,25.20
2022-10-17T12:22:47.639Z,25.30
2022-10-17T12:28:16.768Z,25.00
2022-10-17T12:38:53.819Z,25.50
2022-10-17T12:41:55.834Z,25.30
2022-10-17T12:44:38.982Z,25.50
2022-10-17T12:47:40.272Z,25.70
2022-10-17T12:50:45.114Z,25.70
2022-10-17T12:53:19.197Z,25.60
2022-10-17T12:55:51.658Z,25.70
2022-10-17T13:03:54.191Z,25.90
2022-10-17T13:06:27.918Z,25.20
2022-10-17T13:09:03.607Z,25.10
2022-10-17T13:11:37.410Z,24.80
2022-10-17T13:14:38.468Z,24.70
2022-10-17T13:17:37.992Z,24.60
2022-10-17T13:21:00.361Z,24.90
2022-10-17T13:27:10.041Z,25.20
2022-10-17T13:29:45.787Z,25.10
2022-10-17T13:37:51.535Z,25.00
2022-10-17T13:40:49.732Z,25.20
2022-10-17T13:43:20.100Z,25.30
2022-10-17T13:46:19.349Z,25.10
2022-10-17T13:48:53.674Z,25.10
2022-10-17T13:51:23.451Z,25.00
2022-10-17T13:56:46.830Z,25.00
2022-10-17T13:59:23.889Z,25.30
2022-10-17T14:01:52.122Z,25.10
2022-10-17T14:04:20.588Z,25.20
2022-10-17T14:06:52.111Z,25.10
2022-10-17T14:09:23.703Z,25.30
2022-10-17T14:28:02.899Z,25.60
2022-10-17T14:30:55.793Z,25.30
2022-10-17T14:33:26.188Z,25.00
2022-10-17T14:35:55.709Z,24.80
2022-10-17T14:38:24.039Z,24.80
2022-10-17T14:41:04.801Z,24.80
2022-10-17T14:43:57.088Z,24.60
2022-10-17T14:52:26.901Z,24.30
2022-10-17T14:54:58.781Z,24.40
2022-10-17T15:12:52.069Z,24.10
2022-10-17T15:15:39.690Z,24.10
2022-10-17T15:22:03.581Z,24.00
2022-10-17T16:01:00.929Z,23.60
2022-10-17T16:04:13.581Z,23.80
2022-10-17T16:06:57.212Z,23.80
2022-10-17T16:09:29.650Z,23.70
2022-10-17T16:12:05.148Z,23.80
2022-10-17T16:14:48.409Z,23.60
2022-10-17T16:17:24.348Z,23.60
2022-10-17T16:19:51.803Z,23.40
2022-10-17T16:22:24.210Z,23.20
2022-10-17T16:27:45.471Z,23.20
2022-10-17T16:30:17.175Z,23.10
2022-10-17T16:32:50.328Z,22.80
2022-10-17T16:35:22.588Z,22.60
2022-10-17T16:37:53.738Z,22.90
2022-10-17T16:40:24.680Z,22.80
2022-10-17T16:42:54.991Z,23.10
2022-10-17T16:48:29.806Z,22.70
2022-10-17T16:51:01.481Z,22.60
2022-10-17T16:53:30.378Z,22.70
2022-10-17T16:56:04.728Z,22.70
2022-10-17T16:58:35.881Z,22.50
2022-10-17T17:01:06.413Z,22.50
2022-10-17T17:03:43.070Z,22.50
2022-10-17T17:10:54.459Z,22.70
2022-10-17T17:13:25.319Z,22.60
2022-10-17T17:15:54.680Z,22.30
2022-10-17T17:18:22.798Z,22.30
2022-10-17T17:20:50.660Z,22.40
2022-10-17T17:23:18.748Z,22.30
2022-10-17T17:25:46.228Z,22.20
2022-10-17T17:33:30.161Z,21.90
2022-10-17T17:35:59.780Z,21.70
2022-10-17T17:38:30.377Z,21.70
2022-10-17T17:40:58.482Z,21.80
2022-10-17T17:43:27.093Z,21.90
2022-10-17T17:45:55.334Z,21.80
2022-10-17T17:48:23.102Z,21.70
2022-10-17T17:56:50.952Z,21.60
2022-10-17T17:59:21.785Z,21.50
2022-10-17T18:01:49.562Z,21.50
2022-10-17T18:04:17.060Z,21.40
2022-10-17T18:06:47.927Z,21.60
2022-10-17T18:09:18.563Z,21.50
2022-10-17T18:11:48.224Z,21.60
2022-10-17T18:14:16.323Z,21.40
2022-10-17T18:21:51.669Z,21.30
2022-10-17T18:24:26.544Z,21.30
2022-10-17T18:27:00.755Z,21.30
2022-10-17T18:29:33.613Z,21.30
2022-10-17T18:32:02.761Z,21.20
2022-10-17T18:34:36.564Z,21.20
2022-10-17T18:37:10.779Z,21.20
2022-10-17T18:42:35.934Z,21.20
2022-10-17T18:45:05.935Z,21.10
2022-10-17T18:47:34.432Z,21.10
2022-10-17T18:50:02.696Z,20.90
2022-10-17T18:52:31.480Z,21.00
2022-10-17T18:55:00.224Z,21.10
2022-10-17T18:57:28.871Z,21.00
2022-10-17T19:00:00.245Z,21.00
2022-10-17T19:07:38.204Z,21.00
2022-10-17T19:10:07.214Z,20.90
2022-10-17T19:12:41.814Z,21.00
2022-10-17T19:15:11.282Z,20.90
2022-10-17T19:17:39.112Z,20.90
2022-10-17T19:20:09.603Z,20.90
2022-10-17T19:22:42.314Z,20.90
2022-10-17T19:25:13.793Z,20.90
2022-10-17T19:32:22.849Z,21.10
2022-10-17T19:34:54.952Z,21.20
2022-10-17T19:37:33.256Z,21.50
2022-10-17T19:40:00.962Z,21.60
2022-10-17T19:42:30.898Z,21.90
2022-10-17T19:45:02.410Z,21.90
2022-10-17T19:47:35.626Z,21.90
2022-10-17T19:55:12.743Z,21.70
2022-10-17T19:57:45.845Z,21.30
2022-10-17T20:00:17.470Z,21.10
2022-10-17T20:02:48.003Z,21.20
2022-10-17T20:05:19.736Z,21.10
2022-10-17T20:07:53.074Z,21.00
2022-10-17T20:10:35.305Z,21.10
2022-10-17T20:13:04.216Z,21.00
2022-10-17T20:20:45.584Z,20.90
2022-10-17T20:23:13.717Z,20.80
2022-10-17T20:25:46.222Z,20.90
2022-10-17T20:28:14.947Z,20.80
2022-10-17T20:30:46.023Z,20.90
2022-10-17T20:33:16.463Z,20.90
2022-10-17T20:35:50.535Z,20.90
2022-10-17T20:43:24.342Z,20.80
2022-10-17T20:46:03.595Z,20.70
2022-10-17T20:48:37.356Z,20.80
2022-10-17T20:51:08.413Z,20.80
2022-10-17T20:53:37.368Z,20.90
2022-10-17T20:56:08.650Z,20.90
2022-10-17T20:58:38.711Z,20.90
2022-10-17T21:06:16.839Z,21.10
2022-10-17T21:08:44.691Z,21.10
2022-10-17T21:11:14.831Z,21.10
2022-10-17T21:13:42.732Z,21.20
2022-10-17T21:16:12.057Z,21.20
2022-10-17T21:18:41.053Z,21.10
2022-10-17T21:21:24.203Z,21.10
2022-10-17T21:28:58.578Z,21.10
2022-10-17T21:31:27.528Z,21.10
2022-10-17T21:33:57.271Z,21.10
2022-10-17T21:36:27.184Z,21.10
2022-10-17T21:38:55.832Z,21.20
2022-10-17T21:41:26.903Z,21.20
2022-10-17T21:43:57.914Z,21.10
2022-10-17T21:46:26.364Z,21.10
2022-10-17T21:53:56.606Z,21.10
2022-10-17T21:56:27.725Z,21.20
2022-10-17T21:58:55.774Z,21.10
2022-10-17T22:01:25.450Z,21.20
2022-10-17T22:03:54.964Z,21.20
2022-10-17T22:06:40.905Z,21.20
2022-10-17T22:09:11.615Z,21.30
2022-10-17T22:14:35.799Z,21.90
2022-10-17T22:17:03.141Z,21.90
2022-10-17T22:19:31.743Z,21.90
2022-10-17T22:21:59.251Z,21.90
2022-10-17T22:24:34.431Z,21.80
2022-10-17T22:27:01.936Z,21.50
2022-10-17T22:29:29.271Z,21.50
2022-10-17T22:31:57.541Z,21.60
2022-10-17T22:39:31.754Z,21.60
2022-10-17T22:41:59.033Z,21.70
2022-10-17T22:44:26.152Z,21.50
2022-10-17T22:46:57.001Z,21.60
2022-10-17T22:49:25.430Z,21.50
2022-10-17T22:51:52.941Z,21.30
2022-10-17T22:54:20.673Z,21.50
2022-10-17T23:02:28.267Z,21.00
2022-10-17T23:04:56.173Z,20.80
2022-10-17T23:07:24.204Z,20.90
2022-10-17T23:09:51.682Z,20.80
2022-10-17T23:12:19.842Z,20.90
2022-10-17T23:14:47.293Z,21.00
2022-10-17T23:17:15.375Z,21.20
2022-10-17T23:24:45.393Z,21.30
2022-10-17T23:27:13.653Z,21.30
2022-10-17T23:29:41.264Z,21.30
2022-10-17T23:32:09.721Z,21.20
2022-10-17T23:34:39.573Z,21.10
2022-10-17T23:37:06.981Z,21.10
2022-10-17T23:39:34.305Z,21.10
2022-10-17T23:47:08.761Z,21.20
2022-10-17T23:49:36.028Z,21.10
2022-10-17T23:52:03.383Z,21.10
2022-10-17T23:54:31.695Z,21.00
2022-10-17T23:56:59.245Z,20.90
2022-10-17T23:59:27.114Z,20.70
